sensor_id;sensor_type;location;lat;lon;timestamp;temperature;humidity
1103;DHT22;538;42.654;23.376;2022-08-05T00:02:18;20.60;21.30
1103;DHT22;538;42.654;23.376;2022-08-05T00:04:45;20.60;21.80
1103;DHT22;538;42.654;23.376;2022-08-05T00:07:13;20.60;20.80
1103;DHT22;538;42.654;23.376;2022-08-05T00:09:40;20.60;21.00
1103;DHT22;538;42.654;23.376;2022-08-05T00:12:08;20.60;20.80
1103;DHT22;538;42.654;23.376;2022-08-05T00:14:35;20.40;21.10
1103;DHT22;538;42.654;23.376;2022-08-05T00:17:03;20.40;21.30
1103;DHT22;538;42.654;23.376;2022-08-05T00:19:30;20.20;21.40
1103;DHT22;538;42.654;23.376;2022-08-05T00:21:57;20.20;21.70
1103;DHT22;538;42.654;23.376;2022-08-05T00:24:24;20.10;22.30
1103;DHT22;538;42.654;23.376;2022-08-05T00:26:52;20.10;22.60
1103;DHT22;538;42.654;23.376;2022-08-05T00:29:20;20.10;22.70
1103;DHT22;538;42.654;23.376;2022-08-05T00:31:48;20.10;23.00
1103;DHT22;538;42.654;23.376;2022-08-05T00:34:15;20.00;23.30
1103;DHT22;538;42.654;23.376;2022-08-05T00:36:42;20.10;24.30
1103;DHT22;538;42.654;23.376;2022-08-05T00:39:09;20.10;23.80
1103;DHT22;538;42.654;23.376;2022-08-05T00:41:37;20.10;23.60
1103;DHT22;538;42.654;23.376;2022-08-05T00:44:05;20.10;24.30
1103;DHT22;538;42.654;23.376;2022-08-05T00:46:33;20.20;25.30
1103;DHT22;538;42.654;23.376;2022-08-05T00:49:00;20.30;25.10
1103;DHT22;538;42.654;23.376;2022-08-05T00:51:27;20.20;25.70
1103;DHT22;538;42.654;23.376;2022-08-05T00:53:54;20.10;25.50
1103;DHT22;538;42.654;23.376;2022-08-05T00:56:22;20.00;25.00
1103;DHT22;538;42.654;23.376;2022-08-05T00:58:49;20.00;25.70
1103;DHT22;538;42.654;23.376;2022-08-05T01:01:16;20.00;26.20
1103;DHT22;538;42.654;23.376;2022-08-05T01:03:44;19.90;25.90
1103;DHT22;538;42.654;23.376;2022-08-05T01:06:12;19.90;25.00
1103;DHT22;538;42.654;23.376;2022-08-05T01:08:39;19.90;25.90
1103;DHT22;538;42.654;23.376;2022-08-05T01:11:10;19.90;26.30
1103;DHT22;538;42.654;23.376;2022-08-05T01:13:44;19.90;26.00
1103;DHT22;538;42.654;23.376;2022-08-05T01:16:19;19.80;25.30
1103;DHT22;538;42.654;23.376;2022-08-05T01:18:51;19.70;25.40
1103;DHT22;538;42.654;23.376;2022-08-05T01:21:40;19.70;25.00
1103;DHT22;538;42.654;23.376;2022-08-05T01:24:25;19.60;24.50
1103;DHT22;538;42.654;23.376;2022-08-05T01:26:59;19.40;25.40
1103;DHT22;538;42.654;23.376;2022-08-05T01:29:33;19.20;25.90
1103;DHT22;538;42.654;23.376;2022-08-05T01:32:05;19.10;26.40
1103;DHT22;538;42.654;23.376;2022-08-05T01:34:36;19.00;26.90
1103;DHT22;538;42.654;23.376;2022-08-05T01:37:08;18.90;27.50
1103;DHT22;538;42.654;23.376;2022-08-05T01:39:38;18.80;28.20
1103;DHT22;538;42.654;23.376;2022-08-05T01:42:09;18.70;29.30
1103;DHT22;538;42.654;23.376;2022-08-05T01:44:39;18.70;30.50
1103;DHT22;538;42.654;23.376;2022-08-05T01:47:07;18.60;31.00
1103;DHT22;538;42.654;23.376;2022-08-05T01:49:36;18.60;31.00
1103;DHT22;538;42.654;23.376;2022-08-05T01:52:05;18.60;31.30
1103;DHT22;538;42.654;23.376;2022-08-05T01:54:36;18.60;32.20
1103;DHT22;538;42.654;23.376;2022-08-05T01:57:06;18.50;32.70
1103;DHT22;538;42.654;23.376;2022-08-05T01:59:36;18.50;33.30
1103;DHT22;538;42.654;23.376;2022-08-05T02:02:08;18.50;33.80
1103;DHT22;538;42.654;23.376;2022-08-05T02:04:39;18.50;34.60
1103;DHT22;538;42.654;23.376;2022-08-05T02:07:08;18.50;34.70
1103;DHT22;538;42.654;23.376;2022-08-05T02:09:37;18.50;35.00
1103;DHT22;538;42.654;23.376;2022-08-05T02:12:07;18.50;34.30
1103;DHT22;538;42.654;23.376;2022-08-05T02:14:42;18.50;34.20
1103;DHT22;538;42.654;23.376;2022-08-05T02:17:16;18.50;33.80
1103;DHT22;538;42.654;23.376;2022-08-05T02:19:50;18.50;34.60
1103;DHT22;538;42.654;23.376;2022-08-05T02:22:22;18.40;34.30
1103;DHT22;538;42.654;23.376;2022-08-05T02:24:52;18.40;34.40
1103;DHT22;538;42.654;23.376;2022-08-05T02:27:22;18.40;34.60
1103;DHT22;538;42.654;23.376;2022-08-05T02:29:51;18.40;34.40
1103;DHT22;538;42.654;23.376;2022-08-05T02:32:21;18.40;35.60
1103;DHT22;538;42.654;23.376;2022-08-05T02:34:49;18.40;35.20
1103;DHT22;538;42.654;23.376;2022-08-05T02:37:18;18.40;35.30
1103;DHT22;538;42.654;23.376;2022-08-05T02:39:46;18.40;35.10
1103;DHT22;538;42.654;23.376;2022-08-05T02:42:14;18.40;35.10
1103;DHT22;538;42.654;23.376;2022-08-05T02:44:43;18.40;34.70
1103;DHT22;538;42.654;23.376;2022-08-05T02:47:11;18.40;34.60
1103;DHT22;538;42.654;23.376;2022-08-05T02:49:41;18.30;34.60
1103;DHT22;538;42.654;23.376;2022-08-05T02:52:12;18.30;34.30
1103;DHT22;538;42.654;23.376;2022-08-05T02:54:40;18.40;34.30
1103;DHT22;538;42.654;23.376;2022-08-05T02:57:10;18.40;36.00
1103;DHT22;538;42.654;23.376;2022-08-05T02:59:40;18.40;33.80
1103;DHT22;538;42.654;23.376;2022-08-05T03:02:08;18.50;34.90
1103;DHT22;538;42.654;23.376;2022-08-05T03:04:36;18.50;35.40
1103;DHT22;538;42.654;23.376;2022-08-05T03:07:06;18.50;33.70
1103;DHT22;538;42.654;23.376;2022-08-05T03:09:34;18.50;34.50
1103;DHT22;538;42.654;23.376;2022-08-05T03:12:02;18.50;32.80
1103;DHT22;538;42.654;23.376;2022-08-05T03:14:29;18.50;32.60
1103;DHT22;538;42.654;23.376;2022-08-05T03:16:56;18.50;32.50
1103;DHT22;538;42.654;23.376;2022-08-05T03:19:24;18.50;32.20
1103;DHT22;538;42.654;23.376;2022-08-05T03:21:51;18.50;30.90
1103;DHT22;538;42.654;23.376;2022-08-05T03:24:19;18.50;30.10
1103;DHT22;538;42.654;23.376;2022-08-05T03:26:47;18.50;30.00
1103;DHT22;538;42.654;23.376;2022-08-05T03:29:14;18.40;29.90
1103;DHT22;538;42.654;23.376;2022-08-05T03:31:41;18.40;30.00
1103;DHT22;538;42.654;23.376;2022-08-05T03:34:08;18.40;30.00
1103;DHT22;538;42.654;23.376;2022-08-05T03:36:35;18.40;30.00
1103;DHT22;538;42.654;23.376;2022-08-05T03:39:06;18.40;29.80
1103;DHT22;538;42.654;23.376;2022-08-05T03:41:34;18.40;30.70
1103;DHT22;538;42.654;23.376;2022-08-05T03:44:01;18.40;29.80
1103;DHT22;538;42.654;23.376;2022-08-05T03:46:29;18.50;29.60
1103;DHT22;538;42.654;23.376;2022-08-05T03:48:57;18.50;29.80
1103;DHT22;538;42.654;23.376;2022-08-05T03:51:28;18.50;29.50
1103;DHT22;538;42.654;23.376;2022-08-05T03:53:59;18.50;30.10
1103;DHT22;538;42.654;23.376;2022-08-05T03:56:32;18.60;29.50
1103;DHT22;538;42.654;23.376;2022-08-05T03:59:07;18.50;29.80
1103;DHT22;538;42.654;23.376;2022-08-05T04:01:38;18.60;29.80
1103;DHT22;538;42.654;23.376;2022-08-05T04:04:05;18.60;31.60
1103;DHT22;538;42.654;23.376;2022-08-05T04:06:33;18.60;30.20
1103;DHT22;538;42.654;23.376;2022-08-05T04:09:01;18.60;29.90
1103;DHT22;538;42.654;23.376;2022-08-05T04:11:28;18.70;29.90
1103;DHT22;538;42.654;23.376;2022-08-05T04:13:55;18.60;30.30
1103;DHT22;538;42.654;23.376;2022-08-05T04:16:24;18.60;30.70
1103;DHT22;538;42.654;23.376;2022-08-05T04:18:52;18.60;31.00
1103;DHT22;538;42.654;23.376;2022-08-05T04:21:19;18.60;31.00
1103;DHT22;538;42.654;23.376;2022-08-05T04:23:46;18.60;31.00
1103;DHT22;538;42.654;23.376;2022-08-05T04:26:14;18.60;31.00
1103;DHT22;538;42.654;23.376;2022-08-05T04:28:41;18.60;31.00
1103;DHT22;538;42.654;23.376;2022-08-05T04:31:09;18.60;30.80
1103;DHT22;538;42.654;23.376;2022-08-05T04:33:37;18.60;31.00
1103;DHT22;538;42.654;23.376;2022-08-05T04:36:06;18.70;32.10
1103;DHT22;538;42.654;23.376;2022-08-05T04:38:35;18.70;32.40
1103;DHT22;538;42.654;23.376;2022-08-05T04:41:02;18.70;31.10
1103;DHT22;538;42.654;23.376;2022-08-05T04:43:29;18.70;32.20
1103;DHT22;538;42.654;23.376;2022-08-05T04:45:57;18.90;33.30
1103;DHT22;538;42.654;23.376;2022-08-05T04:48:24;19.00;33.00
1103;DHT22;538;42.654;23.376;2022-08-05T04:50:52;19.00;31.60
1103;DHT22;538;42.654;23.376;2022-08-05T04:53:20;19.00;32.10
1103;DHT22;538;42.654;23.376;2022-08-05T04:55:47;19.10;32.00
1103;DHT22;538;42.654;23.376;2022-08-05T04:58:16;19.10;31.00
1103;DHT22;538;42.654;23.376;2022-08-05T05:00:44;19.10;30.20
1103;DHT22;538;42.654;23.376;2022-08-05T05:03:11;19.20;30.60
1103;DHT22;538;42.654;23.376;2022-08-05T05:05:38;19.20;30.20
1103;DHT22;538;42.654;23.376;2022-08-05T05:08:09;19.30;29.90
1103;DHT22;538;42.654;23.376;2022-08-05T05:10:38;19.40;29.50
1103;DHT22;538;42.654;23.376;2022-08-05T05:13:07;19.40;29.00
1103;DHT22;538;42.654;23.376;2022-08-05T05:15:34;19.30;28.70
1103;DHT22;538;42.654;23.376;2022-08-05T05:18:01;19.20;29.90
1103;DHT22;538;42.654;23.376;2022-08-05T05:20:28;19.20;30.70
1103;DHT22;538;42.654;23.376;2022-08-05T05:22:56;19.20;31.50
1103;DHT22;538;42.654;23.376;2022-08-05T05:25:25;19.20;31.70
1103;DHT22;538;42.654;23.376;2022-08-05T05:27:52;19.20;32.30
1103;DHT22;538;42.654;23.376;2022-08-05T05:30:20;19.30;32.80
1103;DHT22;538;42.654;23.376;2022-08-05T05:32:48;19.30;33.00
1103;DHT22;538;42.654;23.376;2022-08-05T05:35:15;19.40;33.20
1103;DHT22;538;42.654;23.376;2022-08-05T05:37:46;19.40;33.30
1103;DHT22;538;42.654;23.376;2022-08-05T05:40:14;19.50;32.70
1103;DHT22;538;42.654;23.376;2022-08-05T05:42:43;19.50;32.00
1103;DHT22;538;42.654;23.376;2022-08-05T05:45:10;19.60;32.60
1103;DHT22;538;42.654;23.376;2022-08-05T05:47:38;19.60;32.70
1103;DHT22;538;42.654;23.376;2022-08-05T05:50:06;19.70;33.00
1103;DHT22;538;42.654;23.376;2022-08-05T05:52:33;19.80;31.80
1103;DHT22;538;42.654;23.376;2022-08-05T05:55:01;19.90;31.70
1103;DHT22;538;42.654;23.376;2022-08-05T05:57:29;20.00;31.10
1103;DHT22;538;42.654;23.376;2022-08-05T05:59:57;20.10;30.50
1103;DHT22;538;42.654;23.376;2022-08-05T06:02:24;20.10;30.10
1103;DHT22;538;42.654;23.376;2022-08-05T06:04:51;20.20;30.50
1103;DHT22;538;42.654;23.376;2022-08-05T06:07:18;20.30;30.90
1103;DHT22;538;42.654;23.376;2022-08-05T06:09:46;20.40;28.80
1103;DHT22;538;42.654;23.376;2022-08-05T06:12:13;20.50;29.00
1103;DHT22;538;42.654;23.376;2022-08-05T06:14:40;20.50;29.40
1103;DHT22;538;42.654;23.376;2022-08-05T06:17:11;20.60;29.70
1103;DHT22;538;42.654;23.376;2022-08-05T06:19:38;20.70;29.60
1103;DHT22;538;42.654;23.376;2022-08-05T06:22:06;20.80;29.10
1103;DHT22;538;42.654;23.376;2022-08-05T06:24:35;20.90;28.70
1103;DHT22;538;42.654;23.376;2022-08-05T06:27:06;21.10;28.30
1103;DHT22;538;42.654;23.376;2022-08-05T06:29:33;21.20;27.50
1103;DHT22;538;42.654;23.376;2022-08-05T06:32:01;21.30;27.60
1103;DHT22;538;42.654;23.376;2022-08-05T06:34:30;21.50;27.00
1103;DHT22;538;42.654;23.376;2022-08-05T06:36:57;21.60;25.20
1103;DHT22;538;42.654;23.376;2022-08-05T06:39:24;21.70;24.70
1103;DHT22;538;42.654;23.376;2022-08-05T06:41:51;21.70;24.20
1103;DHT22;538;42.654;23.376;2022-08-05T06:44:19;21.80;24.00
1103;DHT22;538;42.654;23.376;2022-08-05T06:46:46;21.90;24.30
1103;DHT22;538;42.654;23.376;2022-08-05T06:49:13;22.00;24.10
1103;DHT22;538;42.654;23.376;2022-08-05T06:51:42;22.20;24.30
1103;DHT22;538;42.654;23.376;2022-08-05T06:54:09;22.20;25.10
1103;DHT22;538;42.654;23.376;2022-08-05T06:56:37;22.30;24.70
1103;DHT22;538;42.654;23.376;2022-08-05T06:59:04;22.40;24.30
1103;DHT22;538;42.654;23.376;2022-08-05T07:01:31;22.50;24.20
1103;DHT22;538;42.654;23.376;2022-08-05T07:03:59;22.60;23.60
1103;DHT22;538;42.654;23.376;2022-08-05T07:06:27;22.80;23.40
1103;DHT22;538;42.654;23.376;2022-08-05T07:08:55;22.90;23.20
1103;DHT22;538;42.654;23.376;2022-08-05T07:11:23;23.00;22.50
1103;DHT22;538;42.654;23.376;2022-08-05T07:13:50;23.10;21.60
1103;DHT22;538;42.654;23.376;2022-08-05T07:16:34;23.20;21.40
1103;DHT22;538;42.654;23.376;2022-08-05T07:19:17;23.30;21.70
1103;DHT22;538;42.654;23.376;2022-08-05T07:21:45;23.40;21.40
1103;DHT22;538;42.654;23.376;2022-08-05T07:24:14;23.50;20.10
1103;DHT22;538;42.654;23.376;2022-08-05T07:26:42;23.70;20.30
1103;DHT22;538;42.654;23.376;2022-08-05T07:29:09;23.80;19.90
1103;DHT22;538;42.654;23.376;2022-08-05T07:31:37;23.90;19.90
1103;DHT22;538;42.654;23.376;2022-08-05T07:34:05;24.00;19.00
1103;DHT22;538;42.654;23.376;2022-08-05T07:36:32;24.00;17.60
1103;DHT22;538;42.654;23.376;2022-08-05T07:38:59;24.00;17.40
1103;DHT22;538;42.654;23.376;2022-08-05T07:41:28;24.10;18.00
1103;DHT22;538;42.654;23.376;2022-08-05T07:43:56;24.20;17.10
1103;DHT22;538;42.654;23.376;2022-08-05T07:46:25;24.30;17.70
1103;DHT22;538;42.654;23.376;2022-08-05T07:48:53;24.40;17.20
1103;DHT22;538;42.654;23.376;2022-08-05T07:51:20;24.60;17.40
1103;DHT22;538;42.654;23.376;2022-08-05T07:53:47;24.70;16.90
1103;DHT22;538;42.654;23.376;2022-08-05T07:56:14;24.90;16.70
1103;DHT22;538;42.654;23.376;2022-08-05T07:58:43;25.10;16.70
1103;DHT22;538;42.654;23.376;2022-08-05T08:01:10;25.20;16.20
1103;DHT22;538;42.654;23.376;2022-08-05T08:03:37;25.30;15.30
1103;DHT22;538;42.654;23.376;2022-08-05T08:06:05;25.30;14.80
1103;DHT22;538;42.654;23.376;2022-08-05T08:08:32;25.40;14.30
1103;DHT22;538;42.654;23.376;2022-08-05T08:10:59;25.50;14.70
1103;DHT22;538;42.654;23.376;2022-08-05T08:13:26;25.70;15.10
1103;DHT22;538;42.654;23.376;2022-08-05T08:15:55;25.80;15.40
1103;DHT22;538;42.654;23.376;2022-08-05T08:18:23;25.90;15.30
1103;DHT22;538;42.654;23.376;2022-08-05T08:20:50;26.10;15.40
1103;DHT22;538;42.654;23.376;2022-08-05T08:23:17;26.30;14.90
1103;DHT22;538;42.654;23.376;2022-08-05T08:25:44;26.30;13.50
1103;DHT22;538;42.654;23.376;2022-08-05T08:28:12;26.40;14.00
1103;DHT22;538;42.654;23.376;2022-08-05T08:30:39;26.60;14.60
1103;DHT22;538;42.654;23.376;2022-08-05T08:33:08;26.70;12.80
1103;DHT22;538;42.654;23.376;2022-08-05T08:35:35;26.90;12.90
1103;DHT22;538;42.654;23.376;2022-08-05T08:38:03;27.10;14.00
1103;DHT22;538;42.654;23.376;2022-08-05T08:40:32;27.30;13.10
1103;DHT22;538;42.654;23.376;2022-08-05T08:43:00;27.40;11.40
1103;DHT22;538;42.654;23.376;2022-08-05T08:45:29;27.50;10.70
1103;DHT22;538;42.654;23.376;2022-08-05T08:47:58;27.60;9.10
1103;DHT22;538;42.654;23.376;2022-08-05T08:50:29;27.70;11.00
1103;DHT22;538;42.654;23.376;2022-08-05T08:53:02;27.80;10.60
1103;DHT22;538;42.654;23.376;2022-08-05T08:55:30;27.90;9.70
1103;DHT22;538;42.654;23.376;2022-08-05T08:57:58;27.90;9.30
1103;DHT22;538;42.654;23.376;2022-08-05T09:00:26;28.00;10.50
1103;DHT22;538;42.654;23.376;2022-08-05T09:02:53;28.20;8.70
1103;DHT22;538;42.654;23.376;2022-08-05T09:05:22;28.20;9.80
1103;DHT22;538;42.654;23.376;2022-08-05T09:07:52;28.20;7.80
1103;DHT22;538;42.654;23.376;2022-08-05T09:10:20;28.30;7.50
1103;DHT22;538;42.654;23.376;2022-08-05T09:12:47;28.30;6.80
1103;DHT22;538;42.654;23.376;2022-08-05T09:15:15;28.50;6.80
1103;DHT22;538;42.654;23.376;2022-08-05T09:17:42;28.60;6.00
1103;DHT22;538;42.654;23.376;2022-08-05T09:20:10;28.70;5.10
1103;DHT22;538;42.654;23.376;2022-08-05T09:23:05;28.80;4.50
1103;DHT22;538;42.654;23.376;2022-08-05T09:25:33;28.90;5.60
1103;DHT22;538;42.654;23.376;2022-08-05T09:28:11;28.30;3.80
1103;DHT22;538;42.654;23.376;2022-08-05T09:30:43;29.10;4.20
1103;DHT22;538;42.654;23.376;2022-08-05T09:33:10;29.20;4.40
1103;DHT22;538;42.654;23.376;2022-08-05T09:35:37;29.30;2.80
1103;DHT22;538;42.654;23.376;2022-08-05T09:38:06;29.40;2.70
1103;DHT22;538;42.654;23.376;2022-08-05T09:40:36;29.60;2.60
1103;DHT22;538;42.654;23.376;2022-08-05T09:43:06;29.90;1.80
1103;DHT22;538;42.654;23.376;2022-08-05T09:45:39;30.00;1.90
1103;DHT22;538;42.654;23.376;2022-08-05T09:48:22;30.40;1.20
1103;DHT22;538;42.654;23.376;2022-08-05T09:50:53;32.10;1.00
1103;DHT22;538;42.654;23.376;2022-08-05T09:53:21;34.60;1.00
1103;DHT22;538;42.654;23.376;2022-08-05T09:55:54;36.70;1.00
1103;DHT22;538;42.654;23.376;2022-08-05T09:58:21;38.40;1.00
1103;DHT22;538;42.654;23.376;2022-08-05T10:00:57;39.80;1.00
1103;DHT22;538;42.654;23.376;2022-08-05T10:03:25;41.10;1.00
1103;DHT22;538;42.654;23.376;2022-08-05T10:06:04;42.20;1.00
1103;DHT22;538;42.654;23.376;2022-08-05T10:08:34;43.10;1.00
1103;DHT22;538;42.654;23.376;2022-08-05T10:11:03;43.90;1.00
1103;DHT22;538;42.654;23.376;2022-08-05T10:13:34;44.70;1.00
1103;DHT22;538;42.654;23.376;2022-08-05T10:16:02;45.60;1.00
1103;DHT22;538;42.654;23.376;2022-08-05T10:18:30;46.30;1.00
1103;DHT22;538;42.654;23.376;2022-08-05T10:20:59;46.50;1.00
1103;DHT22;538;42.654;23.376;2022-08-05T10:23:30;46.70;1.00
1103;DHT22;538;42.654;23.376;2022-08-05T10:26:01;45.90;1.00
1103;DHT22;538;42.654;23.376;2022-08-05T10:28:31;45.00;1.00
1103;DHT22;538;42.654;23.376;2022-08-05T10:30:59;45.20;1.00
1103;DHT22;538;42.654;23.376;2022-08-05T10:33:28;45.20;1.00
1103;DHT22;538;42.654;23.376;2022-08-05T10:35:57;45.90;1.00
1103;DHT22;538;42.654;23.376;2022-08-05T10:38:26;46.30;1.00
1103;DHT22;538;42.654;23.376;2022-08-05T10:41:01;46.40;1.00
1103;DHT22;538;42.654;23.376;2022-08-05T10:43:37;45.70;1.00
1103;DHT22;538;42.654;23.376;2022-08-05T10:46:07;45.30;1.00
1103;DHT22;538;42.654;23.376;2022-08-05T10:48:37;44.60;1.00
1103;DHT22;538;42.654;23.376;2022-08-05T10:51:07;44.00;1.00
1103;DHT22;538;42.654;23.376;2022-08-05T10:53:40;43.90;1.00
1103;DHT22;538;42.654;23.376;2022-08-05T10:56:12;43.30;1.00
1103;DHT22;538;42.654;23.376;2022-08-05T10:59:07;43.30;1.00
1103;DHT22;538;42.654;23.376;2022-08-05T11:01:35;44.00;1.00
1103;DHT22;538;42.654;23.376;2022-08-05T11:04:05;43.90;1.00
1103;DHT22;538;42.654;23.376;2022-08-05T11:06:33;44.10;1.00
1103;DHT22;538;42.654;23.376;2022-08-05T11:09:16;44.80;1.00
1103;DHT22;538;42.654;23.376;2022-08-05T11:11:47;45.10;1.00
1103;DHT22;538;42.654;23.376;2022-08-05T11:14:23;45.30;1.00
1103;DHT22;538;42.654;23.376;2022-08-05T11:20:04;45.20;1.00
1103;DHT22;538;42.654;23.376;2022-08-05T11:22:40;45.20;1.00
1103;DHT22;538;42.654;23.376;2022-08-05T11:25:28;45.50;1.00
1103;DHT22;538;42.654;23.376;2022-08-05T11:33:53;46.60;1.00
1103;DHT22;538;42.654;23.376;2022-08-05T11:36:38;46.60;1.00
1103;DHT22;538;42.654;23.376;2022-08-05T11:39:05;46.10;1.00
1103;DHT22;538;42.654;23.376;2022-08-05T11:41:33;46.20;1.00
1103;DHT22;538;42.654;23.376;2022-08-05T11:44:04;46.10;1.00
1103;DHT22;538;42.654;23.376;2022-08-05T11:46:33;45.70;1.00
1103;DHT22;538;42.654;23.376;2022-08-05T11:49:04;45.40;1.00
1103;DHT22;538;42.654;23.376;2022-08-05T11:51:32;45.90;1.00
1103;DHT22;538;42.654;23.376;2022-08-05T11:54:00;45.80;1.00
1103;DHT22;538;42.654;23.376;2022-08-05T11:56:42;45.90;1.00
1103;DHT22;538;42.654;23.376;2022-08-05T11:59:14;46.10;1.00
1103;DHT22;538;42.654;23.376;2022-08-05T12:01:52;45.60;1.00
1103;DHT22;538;42.654;23.376;2022-08-05T12:04:20;45.40;1.00
1103;DHT22;538;42.654;23.376;2022-08-05T12:06:47;45.20;1.00
1103;DHT22;538;42.654;23.376;2022-08-05T12:09:17;44.60;1.00
1103;DHT22;538;42.654;23.376;2022-08-05T12:11:46;44.00;1.00
1103;DHT22;538;42.654;23.376;2022-08-05T12:14:15;44.00;1.00
1103;DHT22;538;42.654;23.376;2022-08-05T12:16:43;43.10;1.00
1103;DHT22;538;42.654;23.376;2022-08-05T12:19:12;43.10;1.00
1103;DHT22;538;42.654;23.376;2022-08-05T12:21:45;42.50;1.00
1103;DHT22;538;42.654;23.376;2022-08-05T12:24:14;40.90;1.00
1103;DHT22;538;42.654;23.376;2022-08-05T12:26:43;39.40;1.00
1103;DHT22;538;42.654;23.376;2022-08-05T12:29:13;38.20;1.00
1103;DHT22;538;42.654;23.376;2022-08-05T12:31:45;37.70;1.00
1103;DHT22;538;42.654;23.376;2022-08-05T12:34:14;37.30;1.00
1103;DHT22;538;42.654;23.376;2022-08-05T12:36:42;36.70;1.00
1103;DHT22;538;42.654;23.376;2022-08-05T12:39:10;35.90;1.00
1103;DHT22;538;42.654;23.376;2022-08-05T12:41:39;35.30;1.00
1103;DHT22;538;42.654;23.376;2022-08-05T12:44:08;35.20;1.00
1103;DHT22;538;42.654;23.376;2022-08-05T12:46:37;34.90;1.00
1103;DHT22;538;42.654;23.376;2022-08-05T12:49:08;34.90;1.00
1103;DHT22;538;42.654;23.376;2022-08-05T12:51:43;34.70;1.00
1103;DHT22;538;42.654;23.376;2022-08-05T12:54:18;35.00;1.00
1103;DHT22;538;42.654;23.376;2022-08-05T12:56:47;35.30;1.00
1103;DHT22;538;42.654;23.376;2022-08-05T12:59:18;35.50;1.00
1103;DHT22;538;42.654;23.376;2022-08-05T13:01:53;35.30;1.00
1103;DHT22;538;42.654;23.376;2022-08-05T13:04:24;34.80;1.00
1103;DHT22;538;42.654;23.376;2022-08-05T13:06:51;34.10;1.00
1103;DHT22;538;42.654;23.376;2022-08-05T13:09:19;33.80;1.00
1103;DHT22;538;42.654;23.376;2022-08-05T13:11:48;33.70;1.00
1103;DHT22;538;42.654;23.376;2022-08-05T13:14:17;33.60;1.00
1103;DHT22;538;42.654;23.376;2022-08-05T13:16:50;33.70;1.00
1103;DHT22;538;42.654;23.376;2022-08-05T13:19:22;33.60;1.00
1103;DHT22;538;42.654;23.376;2022-08-05T13:21:49;33.40;1.00
1103;DHT22;538;42.654;23.376;2022-08-05T13:24:18;33.40;1.00
1103;DHT22;538;42.654;23.376;2022-08-05T13:26:46;33.50;1.00
1103;DHT22;538;42.654;23.376;2022-08-05T13:29:14;33.40;1.00
1103;DHT22;538;42.654;23.376;2022-08-05T13:31:41;33.30;1.00
1103;DHT22;538;42.654;23.376;2022-08-05T13:34:09;33.20;1.00
1103;DHT22;538;42.654;23.376;2022-08-05T13:36:37;33.10;1.00
1103;DHT22;538;42.654;23.376;2022-08-05T13:39:06;33.20;1.00
1103;DHT22;538;42.654;23.376;2022-08-05T13:41:33;33.40;1.00
1103;DHT22;538;42.654;23.376;2022-08-05T13:44:00;33.60;1.00
1103;DHT22;538;42.654;23.376;2022-08-05T13:46:27;33.60;1.00
1103;DHT22;538;42.654;23.376;2022-08-05T13:48:55;33.60;1.00
1103;DHT22;538;42.654;23.376;2022-08-05T13:51:27;33.40;1.00
1103;DHT22;538;42.654;23.376;2022-08-05T13:53:56;33.30;1.00
1103;DHT22;538;42.654;23.376;2022-08-05T13:56:24;33.40;1.00
1103;DHT22;538;42.654;23.376;2022-08-05T13:58:51;33.60;1.00
1103;DHT22;538;42.654;23.376;2022-08-05T14:01:18;33.70;1.00
1103;DHT22;538;42.654;23.376;2022-08-05T14:03:45;33.70;1.00
1103;DHT22;538;42.654;23.376;2022-08-05T14:06:33;33.70;1.00
1103;DHT22;538;42.654;23.376;2022-08-05T14:09:01;33.60;1.00
1103;DHT22;538;42.654;23.376;2022-08-05T14:11:28;33.70;1.00
1103;DHT22;538;42.654;23.376;2022-08-05T14:13:55;33.90;1.00
1103;DHT22;538;42.654;23.376;2022-08-05T14:16:23;34.20;1.00
1103;DHT22;538;42.654;23.376;2022-08-05T14:18:50;34.60;1.00
1103;DHT22;538;42.654;23.376;2022-08-05T14:21:17;34.70;1.00
1103;DHT22;538;42.654;23.376;2022-08-05T14:23:44;34.80;1.00
1103;DHT22;538;42.654;23.376;2022-08-05T14:26:12;34.90;1.00
1103;DHT22;538;42.654;23.376;2022-08-05T14:28:39;34.90;1.00
1103;DHT22;538;42.654;23.376;2022-08-05T14:31:07;35.10;1.00
1103;DHT22;538;42.654;23.376;2022-08-05T14:33:34;35.10;1.00
1103;DHT22;538;42.654;23.376;2022-08-05T14:36:02;35.40;1.00
1103;DHT22;538;42.654;23.376;2022-08-05T14:38:30;35.50;1.00
1103;DHT22;538;42.654;23.376;2022-08-05T14:40:57;35.40;1.00
1103;DHT22;538;42.654;23.376;2022-08-05T14:43:26;35.30;1.00
1103;DHT22;538;42.654;23.376;2022-08-05T14:45:53;35.30;1.00
1103;DHT22;538;42.654;23.376;2022-08-05T14:48:20;35.10;1.00
1103;DHT22;538;42.654;23.376;2022-08-05T14:50:47;35.00;1.00
1103;DHT22;538;42.654;23.376;2022-08-05T14:53:14;34.80;1.00
1103;DHT22;538;42.654;23.376;2022-08-05T14:55:41;34.80;1.00
1103;DHT22;538;42.654;23.376;2022-08-05T14:58:09;34.80;1.00
1103;DHT22;538;42.654;23.376;2022-08-05T15:00:37;34.60;1.00
1103;DHT22;538;42.654;23.376;2022-08-05T15:03:04;34.60;1.00
1103;DHT22;538;42.654;23.376;2022-08-05T15:05:32;34.60;1.00
1103;DHT22;538;42.654;23.376;2022-08-05T15:07:59;34.70;1.00
1103;DHT22;538;42.654;23.376;2022-08-05T15:10:26;34.80;1.00
1103;DHT22;538;42.654;23.376;2022-08-05T15:12:53;34.80;1.00
1103;DHT22;538;42.654;23.376;2022-08-05T15:15:21;34.70;1.00
1103;DHT22;538;42.654;23.376;2022-08-05T15:17:49;34.80;1.00
1103;DHT22;538;42.654;23.376;2022-08-05T15:20:17;34.80;1.00
1103;DHT22;538;42.654;23.376;2022-08-05T15:22:44;34.80;1.00
1103;DHT22;538;42.654;23.376;2022-08-05T15:25:11;34.70;1.00
1103;DHT22;538;42.654;23.376;2022-08-05T15:27:38;34.60;1.00
1103;DHT22;538;42.654;23.376;2022-08-05T15:30:05;34.50;1.00
1103;DHT22;538;42.654;23.376;2022-08-05T15:32:33;34.10;1.00
1103;DHT22;538;42.654;23.376;2022-08-05T15:35:01;34.50;1.00
1103;DHT22;538;42.654;23.376;2022-08-05T15:37:28;34.40;1.00
1103;DHT22;538;42.654;23.376;2022-08-05T15:39:55;34.30;1.00
1103;DHT22;538;42.654;23.376;2022-08-05T15:42:22;34.30;1.00
1103;DHT22;538;42.654;23.376;2022-08-05T15:44:50;34.20;1.00
1103;DHT22;538;42.654;23.376;2022-08-05T15:47:19;34.20;1.00
1103;DHT22;538;42.654;23.376;2022-08-05T15:49:48;33.90;1.00
1103;DHT22;538;42.654;23.376;2022-08-05T15:52:17;33.90;1.00
1103;DHT22;538;42.654;23.376;2022-08-05T15:54:44;34.00;1.00
1103;DHT22;538;42.654;23.376;2022-08-05T15:57:12;34.00;1.00
1103;DHT22;538;42.654;23.376;2022-08-05T15:59:39;33.60;1.00
1103;DHT22;538;42.654;23.376;2022-08-05T16:02:07;33.40;1.00
1103;DHT22;538;42.654;23.376;2022-08-05T16:04:34;33.30;1.00
1103;DHT22;538;42.654;23.376;2022-08-05T16:07:01;33.40;1.00
1103;DHT22;538;42.654;23.376;2022-08-05T16:09:30;33.30;1.00
1103;DHT22;538;42.654;23.376;2022-08-05T16:11:57;33.20;1.00
1103;DHT22;538;42.654;23.376;2022-08-05T16:14:24;32.90;1.00
1103;DHT22;538;42.654;23.376;2022-08-05T16:16:51;33.10;1.00
1103;DHT22;538;42.654;23.376;2022-08-05T16:19:18;33.00;1.00
1103;DHT22;538;42.654;23.376;2022-08-05T16:21:45;32.90;1.00
1103;DHT22;538;42.654;23.376;2022-08-05T16:24:12;33.00;1.00
1103;DHT22;538;42.654;23.376;2022-08-05T16:26:52;33.00;1.00
1103;DHT22;538;42.654;23.376;2022-08-05T16:29:19;33.10;1.00
1103;DHT22;538;42.654;23.376;2022-08-05T16:31:47;33.10;1.00